sensor_id;sensor_type;location;lat;lon;timestamp;P1;durP1;ratioP1;P2;durP2;ratioP2
52414;SDS011;38340;52.964;6.086;2024-03-17T00:01:37;9.60;;;3.55;;
52414;SDS011;38340;52.964;6.086;2024-03-17T00:04:03;6.03;;;3.20;;
52414;SDS011;38340;52.964;6.086;2024-03-17T00:06:29;5.50;;;2.95;;
52414;SDS011;38340;52.964;6.086;2024-03-17T00:08:55;5.20;;;3.38;;
52414;SDS011;38340;52.964;6.086;2024-03-17T00:11:21;3.63;;;2.70;;
52414;SDS011;38340;52.964;6.086;2024-03-17T00:13:47;4.82;;;3.28;;
52414;SDS011;38340;52.964;6.086;2024-03-17T00:16:13;4.65;;;3.00;;
52414;SDS011;38340;52.964;6.086;2024-03-17T00:18:39;5.50;;;3.30;;
52414;SDS011;38340;52.964;6.086;2024-03-17T00:21:06;6.57;;;3.63;;
52414;SDS011;38340;52.964;6.086;2024-03-17T00:23:31;4.32;;;3.17;;
52414;SDS011;38340;52.964;6.086;2024-03-17T00:25:57;7.57;;;3.15;;
52414;SDS011;38340;52.964;6.086;2024-03-17T00:28:23;5.57;;;3.50;;
52414;SDS011;38340;52.964;6.086;2024-03-17T00:30:50;3.90;;;3.35;;
52414;SDS011;38340;52.964;6.086;2024-03-17T00:33:15;6.32;;;3.70;;
52414;SDS011;38340;52.964;6.086;2024-03-17T00:35:41;8.07;;;4.20;;
52414;SDS011;38340;52.964;6.086;2024-03-17T00:38:07;7.50;;;3.85;;
52414;SDS011;38340;52.964;6.086;2024-03-17T00:40:36;4.30;;;3.45;;
52414;SDS011;38340;52.964;6.086;2024-03-17T00:43:02;6.72;;;3.95;;
52414;SDS011;38340;52.964;6.086;2024-03-17T00:45:28;8.38;;;4.40;;
52414;SDS011;38340;52.964;6.086;2024-03-17T00:47:54;5.75;;;4.43;;
52414;SDS011;38340;52.964;6.086;2024-03-17T00:50:20;6.40;;;4.07;;
52414;SDS011;38340;52.964;6.086;2024-03-17T00:52:45;7.50;;;4.57;;
52414;SDS011;38340;52.964;6.086;2024-03-17T00:55:11;7.05;;;4.43;;
52414;SDS011;38340;52.964;6.086;2024-03-17T00:57:37;5.90;;;4.07;;
52414;SDS011;38340;52.964;6.086;2024-03-17T01:00:03;5.18;;;3.95;;
52414;SDS011;38340;52.964;6.086;2024-03-17T01:02:31;6.50;;;4.38;;
52414;SDS011;38340;52.964;6.086;2024-03-17T01:04:56;7.45;;;3.88;;
52414;SDS011;38340;52.964;6.086;2024-03-17T01:07:22;6.93;;;4.50;;
52414;SDS011;38340;52.964;6.086;2024-03-17T01:09:48;9.15;;;4.43;;
52414;SDS011;38340;52.964;6.086;2024-03-17T01:12:14;7.70;;;4.30;;
52414;SDS011;38340;52.964;6.086;2024-03-17T01:14:40;7.68;;;4.47;;
52414;SDS011;38340;52.964;6.086;2024-03-17T01:17:05;12.60;;;5.03;;
52414;SDS011;38340;52.964;6.086;2024-03-17T01:19:31;9.80;;;5.47;;
52414;SDS011;38340;52.964;6.086;2024-03-17T01:21:59;10.70;;;5.53;;
52414;SDS011;38340;52.964;6.086;2024-03-17T01:24:25;8.60;;;5.70;;
52414;SDS011;38340;52.964;6.086;2024-03-17T01:26:56;10.90;;;5.32;;
52414;SDS011;38340;52.964;6.086;2024-03-17T01:29:23;7.65;;;4.55;;
52414;SDS011;38340;52.964;6.086;2024-03-17T01:31:49;8.50;;;4.60;;
52414;SDS011;38340;52.964;6.086;2024-03-17T01:34:16;7.70;;;4.60;;
52414;SDS011;38340;52.964;6.086;2024-03-17T01:36:41;7.10;;;4.65;;
52414;SDS011;38340;52.964;6.086;2024-03-17T01:39:07;8.98;;;4.60;;
52414;SDS011;38340;52.964;6.086;2024-03-17T01:41:33;9.13;;;4.47;;
52414;SDS011;38340;52.964;6.086;2024-03-17T01:43:58;7.00;;;4.05;;
52414;SDS011;38340;52.964;6.086;2024-03-17T01:46:24;9.05;;;4.25;;
52414;SDS011;38340;52.964;6.086;2024-03-17T01:48:50;7.03;;;4.30;;
52414;SDS011;38340;52.964;6.086;2024-03-17T01:51:16;5.75;;;3.78;;
52414;SDS011;38340;52.964;6.086;2024-03-17T01:53:43;6.55;;;4.22;;
52414;SDS011;38340;52.964;6.086;2024-03-17T01:56:10;6.57;;;4.00;;
52414;SDS011;38340;52.964;6.086;2024-03-17T01:58:36;6.28;;;4.15;;
52414;SDS011;38340;52.964;6.086;2024-03-17T02:01:02;7.88;;;3.78;;
52414;SDS011;38340;52.964;6.086;2024-03-17T02:03:29;11.32;;;4.38;;
52414;SDS011;38340;52.964;6.086;2024-03-17T02:05:55;8.23;;;4.13;;
52414;SDS011;38340;52.964;6.086;2024-03-17T02:08:22;8.85;;;4.65;;
52414;SDS011;38340;52.964;6.086;2024-03-17T02:10:54;7.13;;;4.40;;
52414;SDS011;38340;52.964;6.086;2024-03-17T02:13:20;6.63;;;4.00;;
52414;SDS011;38340;52.964;6.086;2024-03-17T02:15:47;6.45;;;4.60;;
52414;SDS011;38340;52.964;6.086;2024-03-17T02:18:13;6.68;;;4.38;;
52414;SDS011;38340;52.964;6.086;2024-03-17T02:20:39;5.70;;;4.20;;
52414;SDS011;38340;52.964;6.086;2024-03-17T02:23:20;7.78;;;3.97;;
52414;SDS011;38340;52.964;6.086;2024-03-17T02:25:46;8.30;;;3.92;;
52414;SDS011;38340;52.964;6.086;2024-03-17T02:28:13;6.78;;;3.97;;
52414;SDS011;38340;52.964;6.086;2024-03-17T02:30:38;12.23;;;4.00;;
52414;SDS011;38340;52.964;6.086;2024-03-17T02:33:04;11.85;;;3.95;;
52414;SDS011;38340;52.964;6.086;2024-03-17T02:35:30;7.25;;;4.20;;
52414;SDS011;38340;52.964;6.086;2024-03-17T02:37:56;7.63;;;4.82;;
52414;SDS011;38340;52.964;6.086;2024-03-17T02:40:21;9.35;;;4.30;;
52414;SDS011;38340;52.964;6.086;2024-03-17T02:42:47;8.93;;;4.05;;
52414;SDS011;38340;52.964;6.086;2024-03-17T02:45:13;6.57;;;4.13;;
52414;SDS011;38340;52.964;6.086;2024-03-17T02:47:39;6.85;;;4.40;;
52414;SDS011;38340;52.964;6.086;2024-03-17T02:50:06;5.95;;;4.30;;
52414;SDS011;38340;52.964;6.086;2024-03-17T02:52:34;6.50;;;4.10;;
52414;SDS011;38340;52.964;6.086;2024-03-17T02:54:59;8.15;;;4.22;;
52414;SDS011;38340;52.964;6.086;2024-03-17T02:57:25;5.75;;;4.10;;
52414;SDS011;38340;52.964;6.086;2024-03-17T02:59:54;6.30;;;4.38;;
52414;SDS011;38340;52.964;6.086;2024-03-17T03:02:20;9.52;;;4.50;;
52414;SDS011;38340;52.964;6.086;2024-03-17T03:04:46;10.15;;;4.18;;
52414;SDS011;38340;52.964;6.086;2024-03-17T03:07:12;10.05;;;5.28;;
52414;SDS011;38340;52.964;6.086;2024-03-17T03:09:38;8.57;;;4.63;;
52414;SDS011;38340;52.964;6.086;2024-03-17T03:12:04;7.63;;;4.38;;
52414;SDS011;38340;52.964;6.086;2024-03-17T03:14:30;11.88;;;4.97;;
52414;SDS011;38340;52.964;6.086;2024-03-17T03:16:57;7.65;;;4.53;;
52414;SDS011;38340;52.964;6.086;2024-03-17T03:19:23;8.27;;;4.47;;
52414;SDS011;38340;52.964;6.086;2024-03-17T03:21:49;8.90;;;4.10;;
52414;SDS011;38340;52.964;6.086;2024-03-17T03:24:15;7.72;;;4.20;;
52414;SDS011;38340;52.964;6.086;2024-03-17T03:26:42;6.75;;;4.50;;
52414;SDS011;38340;52.964;6.086;2024-03-17T03:29:08;11.73;;;4.97;;
52414;SDS011;38340;52.964;6.086;2024-03-17T03:31:35;10.65;;;4.60;;
52414;SDS011;38340;52.964;6.086;2024-03-17T03:34:01;9.82;;;4.88;;
52414;SDS011;38340;52.964;6.086;2024-03-17T03:36:28;8.48;;;5.13;;
52414;SDS011;38340;52.964;6.086;2024-03-17T03:38:54;7.78;;;4.93;;
52414;SDS011;38340;52.964;6.086;2024-03-17T03:41:22;6.50;;;4.35;;
52414;SDS011;38340;52.964;6.086;2024-03-17T03:43:49;14.45;;;4.45;;
52414;SDS011;38340;52.964;6.086;2024-03-17T03:46:15;13.40;;;4.80;;
52414;SDS011;38340;52.964;6.086;2024-03-17T03:48:41;9.15;;;4.70;;
52414;SDS011;38340;52.964;6.086;2024-03-17T03:51:08;9.35;;;5.32;;
52414;SDS011;38340;52.964;6.086;2024-03-17T03:53:34;8.48;;;4.63;;
52414;SDS011;38340;52.964;6.086;2024-03-17T03:56:02;11.35;;;4.90;;
52414;SDS011;38340;52.964;6.086;2024-03-17T03:58:34;11.70;;;4.90;;
52414;SDS011;38340;52.964;6.086;2024-03-17T04:01:04;11.35;;;4.90;;
52414;SDS011;38340;52.964;6.086;2024-03-17T04:03:31;10.20;;;5.07;;
52414;SDS011;38340;52.964;6.086;2024-03-17T04:06:02;8.93;;;4.40;;
52414;SDS011;38340;52.964;6.086;2024-03-17T04:08:34;8.63;;;4.63;;
52414;SDS011;38340;52.964;6.086;2024-03-17T04:11:01;7.78;;;4.43;;
52414;SDS011;38340;52.964;6.086;2024-03-17T04:13:30;10.95;;;5.10;;
52414;SDS011;38340;52.964;6.086;2024-03-17T04:16:00;13.57;;;5.57;;
52414;SDS011;38340;52.964;6.086;2024-03-17T04:18:28;9.27;;;4.32;;
52414;SDS011;38340;52.964;6.086;2024-03-17T04:20:58;11.55;;;4.35;;
52414;SDS011;38340;52.964;6.086;2024-03-17T04:23:28;14.70;;;4.57;;
52414;SDS011;38340;52.964;6.086;2024-03-17T04:25:54;10.40;;;4.93;;
52414;SDS011;38340;52.964;6.086;2024-03-17T04:28:20;10.05;;;4.65;;
52414;SDS011;38340;52.964;6.086;2024-03-17T04:30:45;9.18;;;4.35;;
52414;SDS011;38340;52.964;6.086;2024-03-17T04:33:11;13.98;;;4.68;;
52414;SDS011;38340;52.964;6.086;2024-03-17T04:35:38;9.38;;;4.50;;
52414;SDS011;38340;52.964;6.086;2024-03-17T04:38:04;8.13;;;4.63;;
52414;SDS011;38340;52.964;6.086;2024-03-17T04:40:32;6.35;;;3.88;;
52414;SDS011;38340;52.964;6.086;2024-03-17T04:42:58;6.32;;;4.05;;
52414;SDS011;38340;52.964;6.086;2024-03-17T04:45:24;8.77;;;3.92;;
52414;SDS011;38340;52.964;6.086;2024-03-17T04:47:49;8.10;;;4.75;;
52414;SDS011;38340;52.964;6.086;2024-03-17T04:50:15;9.57;;;4.63;;
52414;SDS011;38340;52.964;6.086;2024-03-17T04:52:41;10.77;;;4.30;;
52414;SDS011;38340;52.964;6.086;2024-03-17T04:55:07;8.38;;;4.78;;
52414;SDS011;38340;52.964;6.086;2024-03-17T04:57:33;10.52;;;4.90;;
52414;SDS011;38340;52.964;6.086;2024-03-17T04:59:59;9.73;;;5.97;;
52414;SDS011;38340;52.964;6.086;2024-03-17T05:02:24;7.30;;;4.93;;
52414;SDS011;38340;52.964;6.086;2024-03-17T05:04:50;8.90;;;4.78;;
52414;SDS011;38340;52.964;6.086;2024-03-17T05:07:16;8.63;;;5.28;;
52414;SDS011;38340;52.964;6.086;2024-03-17T05:09:42;22.67;;;5.28;;
52414;SDS011;38340;52.964;6.086;2024-03-17T05:12:09;9.68;;;4.90;;
52414;SDS011;38340;52.964;6.086;2024-03-17T05:14:35;8.88;;;4.55;;
52414;SDS011;38340;52.964;6.086;2024-03-17T05:17:01;7.60;;;4.78;;
52414;SDS011;38340;52.964;6.086;2024-03-17T05:19:27;9.85;;;5.22;;
52414;SDS011;38340;52.964;6.086;2024-03-17T05:21:52;15.05;;;5.03;;
52414;SDS011;38340;52.964;6.086;2024-03-17T05:24:18;10.02;;;5.30;;
52414;SDS011;38340;52.964;6.086;2024-03-17T05:26:44;15.68;;;6.07;;
52414;SDS011;38340;52.964;6.086;2024-03-17T05:29:11;7.82;;;5.13;;
52414;SDS011;38340;52.964;6.086;2024-03-17T05:31:37;10.00;;;5.47;;
52414;SDS011;38340;52.964;6.086;2024-03-17T05:34:06;11.90;;;5.38;;
52414;SDS011;38340;52.964;6.086;2024-03-17T05:36:32;14.90;;;6.05;;
52414;SDS011;38340;52.964;6.086;2024-03-17T05:38:59;9.82;;;5.60;;
52414;SDS011;38340;52.964;6.086;2024-03-17T05:41:24;10.55;;;5.63;;
52414;SDS011;38340;52.964;6.086;2024-03-17T05:43:51;12.60;;;5.40;;
52414;SDS011;38340;52.964;6.086;2024-03-17T05:46:17;7.90;;;5.18;;
52414;SDS011;38340;52.964;6.086;2024-03-17T05:48:42;8.63;;;5.35;;
52414;SDS011;38340;52.964;6.086;2024-03-17T05:51:11;11.07;;;5.00;;
52414;SDS011;38340;52.964;6.086;2024-03-17T05:53:38;10.00;;;5.40;;
52414;SDS011;38340;52.964;6.086;2024-03-17T05:56:09;11.68;;;6.03;;
52414;SDS011;38340;52.964;6.086;2024-03-17T05:58:36;9.55;;;5.60;;
52414;SDS011;38340;52.964;6.086;2024-03-17T06:01:02;11.48;;;5.38;;
52414;SDS011;38340;52.964;6.086;2024-03-17T06:03:28;13.43;;;5.65;;
52414;SDS011;38340;52.964;6.086;2024-03-17T06:05:54;84.05;;;13.32;;
52414;SDS011;38340;52.964;6.086;2024-03-17T06:08:20;13.38;;;5.70;;
52414;SDS011;38340;52.964;6.086;2024-03-17T06:10:47;18.83;;;6.68;;
52414;SDS011;38340;52.964;6.086;2024-03-17T06:13:14;10.40;;;5.80;;
52414;SDS011;38340;52.964;6.086;2024-03-17T06:15:43;8.32;;;5.63;;
52414;SDS011;38340;52.964;6.086;2024-03-17T06:18:11;17.77;;;6.72;;
52414;SDS011;38340;52.964;6.086;2024-03-17T06:20:43;8.93;;;5.25;;
52414;SDS011;38340;52.964;6.086;2024-03-17T06:23:10;8.02;;;5.45;;
52414;SDS011;38340;52.964;6.086;2024-03-17T06:25:40;8.05;;;5.40;;
52414;SDS011;38340;52.964;6.086;2024-03-17T06:28:09;20.13;;;5.65;;
52414;SDS011;38340;52.964;6.086;2024-03-17T06:30:45;12.55;;;5.78;;
52414;SDS011;38340;52.964;6.086;2024-03-17T06:33:19;9.50;;;5.35;;
52414;SDS011;38340;52.964;6.086;2024-03-17T06:35:45;11.02;;;5.32;;
52414;SDS011;38340;52.964;6.086;2024-03-17T06:38:12;11.20;;;5.10;;
52414;SDS011;38340;52.964;6.086;2024-03-17T06:40:38;12.27;;;5.50;;
52414;SDS011;38340;52.964;6.086;2024-03-17T06:43:04;11.65;;;5.45;;
52414;SDS011;38340;52.964;6.086;2024-03-17T06:45:31;15.07;;;5.68;;
52414;SDS011;38340;52.964;6.086;2024-03-17T06:47:57;12.63;;;5.72;;
52414;SDS011;38340;52.964;6.086;2024-03-17T06:50:23;10.70;;;5.32;;
52414;SDS011;38340;52.964;6.086;2024-03-17T06:52:49;24.27;;;6.90;;
52414;SDS011;38340;52.964;6.086;2024-03-17T06:55:14;156.15;;;30.80;;
52414;SDS011;38340;52.964;6.086;2024-03-17T06:57:44;246.73;;;41.05;;
52414;SDS011;38340;52.964;6.086;2024-03-17T07:00:13;143.30;;;26.65;;
52414;SDS011;38340;52.964;6.086;2024-03-17T07:02:45;67.05;;;12.77;;
52414;SDS011;38340;52.964;6.086;2024-03-17T07:07:40;39.55;;;8.40;;
52414;SDS011;38340;52.964;6.086;2024-03-17T07:10:07;81.78;;;12.48;;
52414;SDS011;38340;52.964;6.086;2024-03-17T07:12:33;14.18;;;6.18;;
52414;SDS011;38340;52.964;6.086;2024-03-17T07:14:59;10.38;;;6.60;;
52414;SDS011;38340;52.964;6.086;2024-03-17T07:17:25;15.68;;;7.05;;
52414;SDS011;38340;52.964;6.086;2024-03-17T07:19:50;14.93;;;6.40;;
52414;SDS011;38340;52.964;6.086;2024-03-17T07:22:16;14.95;;;6.82;;
52414;SDS011;38340;52.964;6.086;2024-03-17T07:24:43;13.55;;;5.65;;
52414;SDS011;38340;52.964;6.086;2024-03-17T07:27:09;19.00;;;7.20;;
52414;SDS011;38340;52.964;6.086;2024-03-17T07:29:38;11.68;;;6.10;;
52414;SDS011;38340;52.964;6.086;2024-03-17T07:32:04;10.07;;;6.15;;
52414;SDS011;38340;52.964;6.086;2024-03-17T07:34:31;9.15;;;6.05;;
52414;SDS011;38340;52.964;6.086;2024-03-17T07:36:57;14.35;;;6.07;;
52414;SDS011;38340;52.964;6.086;2024-03-17T07:39:28;13.57;;;6.15;;
52414;SDS011;38340;52.964;6.086;2024-03-17T07:42:00;9.57;;;6.05;;
52414;SDS011;38340;52.964;6.086;2024-03-17T07:44:27;10.27;;;6.28;;
52414;SDS011;38340;52.964;6.086;2024-03-17T07:46:58;8.52;;;5.80;;
52414;SDS011;38340;52.964;6.086;2024-03-17T07:49:24;17.77;;;6.45;;
52414;SDS011;38340;52.964;6.086;2024-03-17T07:51:49;12.77;;;7.03;;
52414;SDS011;38340;52.964;6.086;2024-03-17T07:54:15;11.75;;;6.80;;
52414;SDS011;38340;52.964;6.086;2024-03-17T07:56:41;15.02;;;7.25;;
52414;SDS011;38340;52.964;6.086;2024-03-17T07:59:06;13.25;;;6.15;;
52414;SDS011;38340;52.964;6.086;2024-03-17T08:01:38;12.00;;;6.82;;
52414;SDS011;38340;52.964;6.086;2024-03-17T08:04:04;12.23;;;6.78;;
52414;SDS011;38340;52.964;6.086;2024-03-17T08:06:29;11.30;;;7.70;;
52414;SDS011;38340;52.964;6.086;2024-03-17T08:08:55;13.98;;;7.97;;
52414;SDS011;38340;52.964;6.086;2024-03-17T08:11:22;16.05;;;8.63;;
52414;SDS011;38340;52.964;6.086;2024-03-17T08:13:48;13.35;;;8.45;;
52414;SDS011;38340;52.964;6.086;2024-03-17T08:16:13;14.63;;;8.85;;
52414;SDS011;38340;52.964;6.086;2024-03-17T08:18:39;13.85;;;8.80;;
52414;SDS011;38340;52.964;6.086;2024-03-17T08:21:05;15.15;;;8.65;;
52414;SDS011;38340;52.964;6.086;2024-03-17T08:23:31;11.55;;;8.20;;
52414;SDS011;38340;52.964;6.086;2024-03-17T08:25:58;13.60;;;8.85;;
52414;SDS011;38340;52.964;6.086;2024-03-17T08:28:26;15.75;;;9.57;;
52414;SDS011;38340;52.964;6.086;2024-03-17T08:30:53;13.80;;;9.07;;
52414;SDS011;38340;52.964;6.086;2024-03-17T08:33:23;20.13;;;9.35;;
52414;SDS011;38340;52.964;6.086;2024-03-17T08:38:19;15.93;;;9.82;;
52414;SDS011;38340;52.964;6.086;2024-03-17T08:40:46;14.38;;;9.25;;
52414;SDS011;38340;52.964;6.086;2024-03-17T08:43:12;14.65;;;10.05;;
52414;SDS011;38340;52.964;6.086;2024-03-17T08:45:38;16.63;;;9.57;;
52414;SDS011;38340;52.964;6.086;2024-03-17T08:48:04;17.48;;;9.52;;
52414;SDS011;38340;52.964;6.086;2024-03-17T08:50:30;13.25;;;10.02;;
52414;SDS011;38340;52.964;6.086;2024-03-17T08:52:58;16.52;;;9.73;;
52414;SDS011;38340;52.964;6.086;2024-03-17T08:55:24;12.63;;;9.18;;
52414;SDS011;38340;52.964;6.086;2024-03-17T08:57:50;13.35;;;8.93;;
52414;SDS011;38340;52.964;6.086;2024-03-17T09:00:15;16.45;;;10.05;;
52414;SDS011;38340;52.964;6.086;2024-03-17T09:02:41;16.05;;;10.23;;
52414;SDS011;38340;52.964;6.086;2024-03-17T09:05:07;13.18;;;9.48;;
52414;SDS011;38340;52.964;6.086;2024-03-17T09:07:33;18.38;;;9.68;;
52414;SDS011;38340;52.964;6.086;2024-03-17T09:09:59;14.35;;;9.70;;
52414;SDS011;38340;52.964;6.086;2024-03-17T09:12:25;14.43;;;9.27;;
52414;SDS011;38340;52.964;6.086;2024-03-17T09:14:52;15.38;;;11.43;;
52414;SDS011;38340;52.964;6.086;2024-03-17T09:17:18;16.08;;;10.05;;
52414;SDS011;38340;52.964;6.086;2024-03-17T09:19:46;18.83;;;9.90;;
52414;SDS011;38340;52.964;6.086;2024-03-17T09:22:12;13.70;;;9.60;;
52414;SDS011;38340;52.964;6.086;2024-03-17T09:24:38;14.05;;;9.77;;
52414;SDS011;38340;52.964;6.086;2024-03-17T09:27:05;12.07;;;9.57;;
52414;SDS011;38340;52.964;6.086;2024-03-17T09:29:31;12.23;;;9.02;;
52414;SDS011;38340;52.964;6.086;2024-03-17T09:31:58;14.98;;;8.80;;
52414;SDS011;38340;52.964;6.086;2024-03-17T09:34:24;13.02;;;8.90;;
52414;SDS011;38340;52.964;6.086;2024-03-17T09:36:50;12.70;;;9.63;;
52414;SDS011;38340;52.964;6.086;2024-03-17T09:39:16;13.95;;;9.90;;
52414;SDS011;38340;52.964;6.086;2024-03-17T09:41:41;12.43;;;8.68;;
52414;SDS011;38340;52.964;6.086;2024-03-17T09:44:11;10.20;;;7.88;;
52414;SDS011;38340;52.964;6.086;2024-03-17T09:46:40;11.40;;;9.15;;
52414;SDS011;38340;52.964;6.086;2024-03-17T09:49:14;14.10;;;9.35;;
52414;SDS011;38340;52.964;6.086;2024-03-17T09:51:41;14.30;;;8.73;;
52414;SDS011;38340;52.964;6.086;2024-03-17T09:54:18;10.13;;;7.75;;
52414;SDS011;38340;52.964;6.086;2024-03-17T09:56:44;10.63;;;8.98;;
52414;SDS011;38340;52.964;6.086;2024-03-17T09:59:10;12.02;;;8.25;;
52414;SDS011;38340;52.964;6.086;2024-03-17T10:01:36;10.23;;;8.55;;
52414;SDS011;38340;52.964;6.086;2024-03-17T10:04:02;15.73;;;8.60;;
52414;SDS011;38340;52.964;6.086;2024-03-17T10:06:33;10.40;;;8.70;;
52414;SDS011;38340;52.964;6.086;2024-03-17T10:09:09;12.07;;;8.13;;
52414;SDS011;38340;52.964;6.086;2024-03-17T10:11:46;12.75;;;8.70;;
52414;SDS011;38340;52.964;6.086;2024-03-17T10:14:12;12.63;;;8.73;;
52414;SDS011;38340;52.964;6.086;2024-03-17T10:16:42;13.02;;;8.93;;
52414;SDS011;38340;52.964;6.086;2024-03-17T10:19:13;10.73;;;8.60;;
52414;SDS011;38340;52.964;6.086;2024-03-17T10:21:46;9.75;;;8.10;;
52414;SDS011;38340;52.964;6.086;2024-03-17T10:24:14;14.07;;;8.43;;
52414;SDS011;38340;52.964;6.086;2024-03-17T10:26:49;11.18;;;8.50;;
52414;SDS011;38340;52.964;6.086;2024-03-17T10:29:25;12.40;;;8.73;;
52414;SDS011;38340;52.964;6.086;2024-03-17T10:31:55;13.30;;;8.23;;
52414;SDS011;38340;52.964;6.086;2024-03-17T10:34:22;15.80;;;8.73;;
52414;SDS011;38340;52.964;6.086;2024-03-17T10:36:50;13.43;;;8.32;;
52414;SDS011;38340;52.964;6.086;2024-03-17T10:39:26;9.48;;;7.90;;
52414;SDS011;38340;52.964;6.086;2024-03-17T10:41:59;13.43;;;9.23;;
52414;SDS011;38340;52.964;6.086;2024-03-17T10:44:26;11.77;;;8.70;;
52414;SDS011;38340;52.964;6.086;2024-03-17T10:46:56;8.88;;;7.70;;
52414;SDS011;38340;52.964;6.086;2024-03-17T10:49:33;10.93;;;8.48;;
52414;SDS011;38340;52.964;6.086;2024-03-17T10:52:00;15.13;;;9.00;;
52414;SDS011;38340;52.964;6.086;2024-03-17T10:54:27;12.38;;;8.52;;
52414;SDS011;38340;52.964;6.086;2024-03-17T10:56:57;16.45;;;9.05;;
52414;SDS011;38340;52.964;6.086;2024-03-17T10:59:40;12.00;;;8.57;;
52414;SDS011;38340;52.964;6.086;2024-03-17T11:02:26;13.45;;;8.85;;
52414;SDS011;38340;52.964;6.086;2024-03-17T11:05:43;11.18;;;8.63;;
52414;SDS011;38340;52.964;6.086;2024-03-17T11:07:51;14.60;;;8.77;;
52414;SDS011;38340;52.964;6.086;2024-03-17T11:10:30;10.90;;;9.23;;
52414;SDS011;38340;52.964;6.086;2024-03-17T11:12:59;12.70;;;9.10;;
52414;SDS011;38340;52.964;6.086;2024-03-17T11:20:33;12.35;;;9.75;;
52414;SDS011;38340;52.964;6.086;2024-03-17T11:22:59;11.23;;;9.30;;
52414;SDS011;38340;52.964;6.086;2024-03-17T11:27:52;12.55;;;9.40;;
52414;SDS011;38340;52.964;6.086;2024-03-17T11:33:51;14.73;;;9.07;;
52414;SDS011;38340;52.964;6.086;2024-03-17T11:49:41;10.57;;;9.15;;
52414;SDS011;38340;52.964;6.086;2024-03-17T11:52:10;11.75;;;9.13;;
52414;SDS011;38340;52.964;6.086;2024-03-17T11:54:38;11.70;;;9.10;;
52414;SDS011;38340;52.964;6.086;2024-03-17T11:57:08;10.48;;;9.02;;
52414;SDS011;38340;52.964;6.086;2024-03-17T11:59:35;11.25;;;8.88;;
52414;SDS011;38340;52.964;6.086;2024-03-17T12:02:17;12.10;;;9.98;;
52414;SDS011;38340;52.964;6.086;2024-03-17T12:04:47;9.68;;;8.48;;
52414;SDS011;38340;52.964;6.086;2024-03-17T12:07:14;11.30;;;8.70;;
52414;SDS011;38340;52.964;6.086;2024-03-17T12:09:41;12.38;;;9.35;;
52414;SDS011;38340;52.964;6.086;2024-03-17T12:12:09;11.43;;;9.07;;
52414;SDS011;38340;52.964;6.086;2024-03-17T12:14:37;11.50;;;8.88;;
52414;SDS011;38340;52.964;6.086;2024-03-17T12:17:04;10.55;;;8.80;;
52414;SDS011;38340;52.964;6.086;2024-03-17T12:19:34;12.70;;;8.48;;
52414;SDS011;38340;52.964;6.086;2024-03-17T12:22:02;10.82;;;8.23;;
52414;SDS011;38340;52.964;6.086;2024-03-17T12:24:33;12.48;;;8.43;;
52414;SDS011;38340;52.964;6.086;2024-03-17T12:27:00;10.77;;;9.50;;
52414;SDS011;38340;52.964;6.086;2024-03-17T12:29:33;10.77;;;8.23;;
52414;SDS011;38340;52.964;6.086;2024-03-17T12:32:06;10.02;;;8.23;;
52414;SDS011;38340;52.964;6.086;2024-03-17T12:34:35;11.05;;;8.13;;
52414;SDS011;38340;52.964;6.086;2024-03-17T12:37:02;9.05;;;7.50;;
52414;SDS011;38340;52.964;6.086;2024-03-17T12:39:29;9.82;;;8.45;;
52414;SDS011;38340;52.964;6.086;2024-03-17T12:44:38;9.00;;;8.10;;
52414;SDS011;38340;52.964;6.086;2024-03-17T12:47:17;9.25;;;8.18;;
52414;SDS011;38340;52.964;6.086;2024-03-17T12:49:47;10.27;;;8.43;;
52414;SDS011;38340;52.964;6.086;2024-03-17T12:57:53;10.10;;;8.60;;
52414;SDS011;38340;52.964;6.086;2024-03-17T13:01:01;13.32;;;8.57;;
52414;SDS011;38340;52.964;6.086;2024-03-17T13:03:35;9.23;;;8.00;;
52414;SDS011;38340;52.964;6.086;2024-03-17T13:06:05;10.02;;;8.52;;
52414;SDS011;38340;52.964;6.086;2024-03-17T13:08:31;10.48;;;8.55;;
52414;SDS011;38340;52.964;6.086;2024-03-17T13:10:58;9.25;;;7.72;;
52414;SDS011;38340;52.964;6.086;2024-03-17T13:13:24;10.35;;;8.10;;
52414;SDS011;38340;52.964;6.086;2024-03-17T13:15:50;11.02;;;8.93;;
52414;SDS011;38340;52.964;6.086;2024-03-17T13:18:17;10.10;;;8.57;;
52414;SDS011;38340;52.964;6.086;2024-03-17T13:20:44;12.55;;;9.05;;
52414;SDS011;38340;52.964;6.086;2024-03-17T13:23:10;10.25;;;8.85;;
52414;SDS011;38340;52.964;6.086;2024-03-17T13:25:36;12.10;;;8.80;;
52414;SDS011;38340;52.964;6.086;2024-03-17T13:28:03;13.07;;;9.23;;
52414;SDS011;38340;52.964;6.086;2024-03-17T13:30:31;13.18;;;9.40;;
52414;SDS011;38340;52.964;6.086;2024-03-17T13:32:58;11.45;;;9.05;;
52414;SDS011;38340;52.964;6.086;2024-03-17T13:35:28;10.05;;;8.88;;
52414;SDS011;38340;52.964;6.086;2024-03-17T13:37:55;11.57;;;9.02;;
52414;SDS011;38340;52.964;6.086;2024-03-17T13:40:26;13.60;;;9.13;;
52414;SDS011;38340;52.964;6.086;2024-03-17T13:42:53;9.65;;;8.75;;
52414;SDS011;38340;52.964;6.086;2024-03-17T13:45:20;13.52;;;9.88;;
52414;SDS011;38340;52.964;6.086;2024-03-17T13:47:53;10.60;;;9.07;;
52414;SDS011;38340;52.964;6.086;2024-03-17T13:50:23;12.85;;;9.18;;
52414;SDS011;38340;52.964;6.086;2024-03-17T13:52:50;10.93;;;9.30;;
52414;SDS011;38340;52.964;6.086;2024-03-17T13:55:17;11.43;;;8.90;;
52414;SDS011;38340;52.964;6.086;2024-03-17T13:57:45;12.10;;;8.40;;
52414;SDS011;38340;52.964;6.086;2024-03-17T14:00:14;11.80;;;8.75;;
52414;SDS011;38340;52.964;6.086;2024-03-17T14:02:47;13.88;;;9.75;;
52414;SDS011;38340;52.964;6.086;2024-03-17T14:05:15;11.15;;;9.45;;
52414;SDS011;38340;52.964;6.086;2024-03-17T14:07:42;9.82;;;8.82;;
52414;SDS011;38340;52.964;6.086;2024-03-17T14:10:10;12.82;;;8.43;;
52414;SDS011;38340;52.964;6.086;2024-03-17T14:12:37;13.23;;;9.00;;
52414;SDS011;38340;52.964;6.086;2024-03-17T14:15:04;12.75;;;8.93;;
52414;SDS011;38340;52.964;6.086;2024-03-17T14:17:36;12.65;;;10.02;;
52414;SDS011;38340;52.964;6.086;2024-03-17T14:20:21;12.13;;;8.95;;
52414;SDS011;38340;52.964;6.086;2024-03-17T14:22:46;10.52;;;8.90;;
52414;SDS011;38340;52.964;6.086;2024-03-17T14:25:16;10.60;;;8.90;;
52414;SDS011;38340;52.964;6.086;2024-03-17T14:27:43;11.43;;;8.80;;
52414;SDS011;38340;52.964;6.086;2024-03-17T14:30:10;9.77;;;8.43;;
52414;SDS011;38340;52.964;6.086;2024-03-17T14:32:40;13.40;;;9.27;;
52414;SDS011;38340;52.964;6.086;2024-03-17T14:35:05;8.98;;;7.95;;
52414;SDS011;38340;52.964;6.086;2024-03-17T14:37:34;13.18;;;9.60;;
52414;SDS011;38340;52.964;6.086;2024-03-17T14:40:00;9.60;;;8.60;;
52414;SDS011;38340;52.964;6.086;2024-03-17T14:42:25;13.13;;;9.27;;
52414;SDS011;38340;52.964;6.086;2024-03-17T14:44:51;10.43;;;8.60;;
52414;SDS011;38340;52.964;6.086;2024-03-17T14:47:17;10.32;;;8.15;;
52414;SDS011;38340;52.964;6.086;2024-03-17T14:49:42;9.57;;;7.80;;
52414;SDS011;38340;52.964;6.086;2024-03-17T14:52:10;11.95;;;8.73;;
52414;SDS011;38340;52.964;6.086;2024-03-17T14:54:35;12.30;;;9.10;;
52414;SDS011;38340;52.964;6.086;2024-03-17T14:57:01;12.52;;;8.73;;
52414;SDS011;38340;52.964;6.086;2024-03-17T14:59:27;11.00;;;8.70;;
52414;SDS011;38340;52.964;6.086;2024-03-17T15:01:52;9.70;;;8.07;;
52414;SDS011;38340;52.964;6.086;2024-03-17T15:04:18;9.88;;;8.32;;
52414;SDS011;38340;52.964;6.086;2024-03-17T15:06:44;9.68;;;8.63;;
52414;SDS011;38340;52.964;6.086;2024-03-17T15:09:10;12.15;;;8.57;;
52414;SDS011;38340;52.964;6.086;2024-03-17T15:11:37;9.73;;;8.73;;
52414;SDS011;38340;52.964;6.086;2024-03-17T15:14:03;10.98;;;8.50;;
52414;SDS011;38340;52.964;6.086;2024-03-17T15:16:33;9.98;;;8.75;;
52414;SDS011;38340;52.964;6.086;2024-03-17T15:18:59;14.07;;;9.68;;